Flight Track Log - Related Links

Times and Time Zones

All times are in EDT time to prevent confusion due to time zone crossing. See the AAL2360 flight status page for this flight to view local times or setup timezone preferences in your user account.

Time Position Orientation Groundspeed Altitude Reporting Facility
EDT Latitude Longitude Course Direction KTS MPH feet Rate Location/Type
Sun 03:59:00 PM 32.8333 -97.0167 North 201 231 2,800  Level Dallas / Fort Worth TRACON
Sun 04:00:00 PM 32.8476 -96.8005 10° North  Level FlightAware Approximate
Sun 04:00:01 PM 32.7833 -96.9833 151° Southeast 249 287 5,200  Level Dallas / Fort Worth TRACON
Sun 04:01:00 PM 32.9650 -96.8000 North  Level FlightAware Approximate
Sun 04:01:55 PM 32.7842 -96.8328 90° East 263 303 9,600  Level Fort Worth Center
Sun 04:02:00 PM 33.0825 -96.8011 357° North  Level FlightAware Approximate
Sun 04:02:55 PM 32.8633 -96.8150 11° North 232 267 10,900  Level Fort Worth Center
Sun 04:03:00 PM 33.1997 -96.8095 357° North  Level FlightAware Approximate
Sun 04:03:55 PM 32.9697 -96.8117 North 316 364 13,700  Level Fort Worth Center
Sun 04:04:00 PM 33.3171 -96.8167 North  Level FlightAware Approximate
Sun 04:04:55 PM 33.0617 -96.8161 358° North 341 392 16,200  Level Fort Worth Center
Sun 04:05:55 PM 33.1722 -96.8178 359° North 353 406 18,800 2,300 Climbing Fort Worth Center
Sun 04:06:55 PM 33.2619 -96.8197 359° North 358 412 20,800 2,017 Climbing Fort Worth Center
Sun 04:07:54 PM 33.3789 -96.8239 358° North 365 420 22,800 1,650 Climbing Fort Worth Center
Sun 04:08:55 PM 33.4875 -96.8306 357° North 377 434 24,100 1,091 Climbing Fort Worth Center
Sun 04:09:55 PM 33.5981 -96.8350 358° North 394 453 25,000 450 Climbing Fort Worth Center
Sun 04:10:55 PM 33.7131 -96.8467 355° North 408 470 25,000  Level Fort Worth Center
Sun 04:11:55 PM 33.8233 -96.8183 12° North 408 470 25,000  Level Fort Worth Center
Sun 04:12:55 PM 33.9214 -96.7653 24° Northeast 409 471 25,000  Level Fort Worth Center
Sun 04:13:55 PM 34.0231 -96.6742 37° Northeast 435 501 25,000  Level Fort Worth Center
Sun 04:14:55 PM 34.1164 -96.5831 39° Northeast 435 501 25,000  Level Fort Worth Center
Sun 04:15:55 PM 34.2158 -96.4867 39° Northeast 440 506 25,000  Level Fort Worth Center
Sun 04:16:55 PM 34.3133 -96.3978 37° Northeast 440 506 25,000  Level Fort Worth Center
Sun 04:17:55 PM 34.4106 -96.3008 39° Northeast 440 506 25,000  Level Fort Worth Center
Sun 04:18:55 PM 34.5078 -96.2064 39° Northeast 440 506 25,000  Level Fort Worth Center
Sun 04:19:55 PM 34.6047 -96.1142 38° Northeast 440 506 25,000  Level Fort Worth Center
Sun 04:20:55 PM 34.7039 -96.0219 37° Northeast 440 506 25,000  Level Fort Worth Center
Sun 04:21:55 PM 34.8008 -95.9267 39° Northeast 440 506 25,000  Level Fort Worth Center
Sun 04:24:06 PM 35.0147 -95.7167 39° Northeast 446 513 25,000  Level Kansas City Center
Sun 04:25:10 PM 35.1175 -95.6169 38° Northeast 441 507 25,000  Level Memphis Center
Sun 04:26:10 PM 35.2153 -95.5264 37° Northeast 441 507 25,000  Level Memphis Center
Sun 04:27:10 PM 35.3131 -95.4281 39° Northeast 441 507 25,000  Level Memphis Center
Sun 04:28:10 PM 35.4089 -95.3319 39° Northeast 441 507 25,000  Level Memphis Center
Sun 04:29:10 PM 35.5064 -95.2333 39° Northeast 441 507 25,000  Level Memphis Center
Sun 04:30:10 PM 35.6042 -95.1369 39° Northeast 441 507 25,000  Level Memphis Center
Sun 04:31:10 PM 35.7017 -95.0403 39° Northeast 441 507 25,000  Level Memphis Center
Sun 04:32:10 PM 35.7992 -94.9433 39° Northeast 441 507 25,000  Level Memphis Center
Sun 04:33:10 PM 35.8964 -94.8439 40° Northeast 441 507 25,000  Level Memphis Center
Sun 04:34:10 PM 35.9939 -94.7467 39° Northeast 441 507 25,000  Level Memphis Center
Sun 04:35:10 PM 36.0892 -94.6464 40° Northeast 441 507 25,000  Level Memphis Center
Sun 04:36:10 PM 36.1969 -94.5414 38° Northeast 441 507 25,000  Level Memphis Center
Sun 04:37:10 PM 36.2939 -94.4408 40° Northeast 441 507 25,000  Level Memphis Center
Sun 04:38:36 PM 36.4119 -94.3189 40° Northeast 451 519 25,000  Level Kansas City Center
Sun 04:39:37 PM 36.5283 -94.1997 39° Northeast 452 520 25,000  Level Kansas City Center
Sun 04:40:38 PM 36.6239 -94.1006 40° Northeast 449 517 25,000  Level Kansas City Center
Sun 04:41:42 PM 36.7203 -94.0011 40° Northeast 449 517 25,000  Level Kansas City Center
Sun 04:42:42 PM 36.8167 -93.9028 39° Northeast 449 517 25,000  Level Kansas City Center
Sun 04:43:44 PM 36.9125 -93.8022 40° Northeast 449 517 25,000  Level Kansas City Center
Sun 04:44:49 PM 37.0203 -93.6883 40° Northeast 446 513 25,000  Level Kansas City Center
Sun 04:45:49 PM 37.1181 -93.5881 39° Northeast 449 517 25,000  Level Kansas City Center
Sun 04:46:50 PM 37.2133 -93.4881 40° Northeast 447 514 25,000  Level Kansas City Center
Sun 04:47:54 PM 37.3097 -93.3864 40° Northeast 450 518 25,000  Level Kansas City Center
Sun 04:48:54 PM 37.4072 -93.2889 38° Northeast 447 514 25,000  Level Kansas City Center
Sun 04:49:57 PM 37.5081 -93.1961 36° Northeast 446 513 25,000  Level Kansas City Center
Sun 04:51:01 PM 37.6292 -93.0844 36° Northeast 446 513 25,000  Level Kansas City Center
Sun 04:52:02 PM 37.7228 -92.9778 42° Northeast 449 517 25,000  Level Kansas City Center
Sun 04:53:02 PM 37.8097 -92.8608 47° Northeast 451 519 25,000  Level Kansas City Center
Sun 04:54:04 PM 37.9019 -92.7542 42° Northeast 446 513 25,000  Level Kansas City Center
Sun 04:55:08 PM 38.0081 -92.6594 35° Northeast 447 514 25,000  Level Kansas City Center
Sun 04:56:09 PM 38.1103 -92.5653 36° Northeast 451 519 25,000  Level Kansas City Center
Sun 04:57:12 PM 38.2147 -92.4747 34° Northeast 450 518 25,000  Level Kansas City Center
Sun 04:58:13 PM 38.3164 -92.3806 36° Northeast 447 514 25,000  Level Kansas City Center
Sun 04:59:17 PM 38.4186 -92.2864 36° Northeast 449 517 25,000  Level Kansas City Center
Sun 05:00:18 PM 38.5417 -92.1744 35° Northeast 450 518 25,000  Level Kansas City Center
Sun 05:01:21 PM 38.6425 -92.0808 36° Northeast 448 516 25,000  Level Kansas City Center
Sun 05:02:22 PM 38.7436 -91.9869 36° Northeast 447 514 25,000  Level Kansas City Center
Sun 05:03:24 PM 38.8450 -91.8931 36° Northeast 448 516 25,000  Level Kansas City Center
Sun 05:04:25 PM 38.9464 -91.7992 36° Northeast 447 514 25,000  Level Kansas City Center
Sun 05:05:29 PM 39.0486 -91.7067 35° Northeast 447 514 25,000  Level Kansas City Center
Sun 05:06:29 PM 39.1633 -91.5978 36° Northeast 448 516 25,000  Level Kansas City Center
Sun 05:07:33 PM 39.2650 -91.5033 36° Northeast 449 517 25,000  Level Kansas City Center
Sun 05:08:35 PM 39.3669 -91.4075 36° Northeast 450 518 25,000  Level Kansas City Center
Sun 05:09:37 PM 39.4683 -91.3106 36° Northeast 451 519 25,000  Level Kansas City Center
Sun 05:10:38 PM 39.5689 -91.2156 36° Northeast 449 517 25,000  Level Kansas City Center
Sun 05:11:40 PM 39.6686 -91.1200 36° Northeast 447 514 25,000  Level Kansas City Center
Sun 05:12:43 PM 39.7683 -91.0222 37° Northeast 445 512 25,000  Level Kansas City Center
Sun 05:13:46 PM 39.8792 -90.9103 38° Northeast 445 512 25,000  Level Kansas City Center
Sun 05:14:46 PM 39.9769 -90.8119 38° Northeast 444 511 25,000  Level Kansas City Center
Sun 05:15:47 PM 40.0744 -90.7131 38° Northeast 443 510 25,000  Level Kansas City Center
Sun 05:16:51 PM 40.1722 -90.6147 38° Northeast 443 510 25,000  Level Kansas City Center
Sun 05:17:55 PM 40.2897 -90.4950 38° Northeast 444 511 25,000  Level Chicago Center
Sun 05:18:57 PM 40.3794 -90.3883 42° Northeast 441 507 25,000  Level Chicago Center
Sun 05:19:59 PM 40.4597 -90.2661 49° Northeast 443 510 25,000  Level Chicago Center
Sun 05:21:00 PM 40.5475 -90.1400 47° Northeast 441 507 25,000  Level Chicago Center
Sun 05:22:02 PM 40.6297 -90.0206 48° Northeast 443 510 25,000  Level Chicago Center
Sun 05:23:04 PM 40.7119 -89.9014 48° Northeast 442 509 25,000  Level Chicago Center
Sun 05:24:06 PM 40.8097 -89.7564 48° Northeast 442 509 25,000 -194 Level Chicago Center
Sun 05:25:08 PM 40.8908 -89.6381 48° Northeast 437 503 24,600 -488 Descending Chicago Center
Sun 05:26:09 PM 40.9756 -89.5139 48° Northeast 432 497 24,000 -341 Descending Chicago Center
Sun 05:27:11 PM 41.0561 -89.3961 48° Northeast 432 497 23,900 -1,113 Descending Chicago Center
Sun 05:28:13 PM 41.1369 -89.2753 48° Northeast 435 501 21,700 -2,081 Descending Chicago Center
Sun 05:29:15 PM 41.2103 -89.1650 49° Northeast 431 496 19,600 -2,177 Descending Chicago Center
Sun 05:30:17 PM 41.3011 -89.0264 49° Northeast 419 482 17,200 -2,323 Descending Chicago Center
Sun 05:31:19 PM 41.3747 -88.9164 48° Northeast 401 461 14,800 -2,293 Descending Chicago Center
Sun 05:32:20 PM 41.4464 -88.8089 48° Northeast 390 449 12,500 -1,854 Descending Chicago Center
Sun 05:33:22 PM 41.5131 -88.7050 49° Northeast 374 430 11,000 -726 Descending Chicago Center
Sun 05:34:24 PM 41.5564 -88.5933 63° Northeast 337 388 11,000 -194 Level Chicago Center
Sun 05:35:26 PM 41.6006 -88.4861 61° Northeast 330 380 10,600 -774 Descending Chicago Center
Sun 05:36:28 PM 41.6522 -88.3994 51° Northeast 301 346 9,400 -1,452 Descending Chicago Center
Sun 05:37:30 PM 41.7431 -88.3619 17° North 283 326 7,600 -1,561 Descending Chicago Center
Sun 05:38:31 PM 41.8183 -88.3258 20° North 285 328 6,200 -1,366 Descending Chicago Center
Sun 05:39:33 PM 41.8897 -88.2872 22° Northeast 282 325 4,800 -1,065 Descending Chicago Center
Sun 05:40:35 PM 41.9500 -88.2364 32° Northeast 277 319 4,000 -774 Descending Chicago Center

Login

Don't have an account? Register now (free) for customized features, flight alerts, and more!